KGEY/GEY METAR and TAF weather

Enter ICAO airport designator
Station Type Date Time Source
KGEY METAR 2021/04/12 03:53 UTC NOAA

KGEY 120353Z AUTO 33021G29KT 10SM BKN110 03/M09 A3003 RMK AO2 PK WND 33030/0313 SLP190 T00331089


Station Type Date Time Source
KGEY Decoded METAR 2021/04/12 03:53 UTC NOAA

SOUTH BIG HORN COUNTY AIRPORT , WY, United States (KGEY) 44-31N 108-05W 1191M
Apr 11, 2021 - 11:53 PM EDT / 2021.04.12 0353 UTC
Wind: from the NNW (330 degrees) at 24 MPH (21 KT) gusting to 33 MPH (29 KT):0
Visibility: 10 mile(s):0
Sky conditions: mostly cloudy
Temperature: 37.9 F (3.3 C)
Dew Point: 16.0 F (-8.9 C)
Relative Humidity: 40%
Pressure (altimeter): 30.03 in. Hg (1016 hPa)
ob: KGEY 120353Z AUTO 33021G29KT 10SM BKN110 03/M09 A3003 RMK AO2 PK WND 33030/0313 SLP190 T00331089
cycle: 4

Station Type Date Time Source
KGEY TAF UTC NOAA

Error!

Example: see airport list